Time;durP1;ratioP1;P1;durP2;ratioP2;P2;SDS_P1;SDS_P2;PMS_P1;PMS_P2;Temp;Humidity;BMP_temperature;BMP_pressure;BME280_temperature;BME280_humidity;BME280_pressure;Samples;Min_cycle;Max_cycle;Signal;HPM_P1;HPM_P2
2022/08/09 00:02:06;;;;;;;2.85;1.85;;;18.60;74.80;;;;;;5116516;28;20542;-82
2022/08/09 00:04:32;;;;;;;2.83;1.17;;;18.60;74.70;;;;;;5116940;28;20035;-81
2022/08/09 00:06:58;;;;;;;2.70;1.15;;;18.60;75.00;;;;;;5115131;28;20793;-81
2022/08/09 00:09:24;;;;;;;3.08;1.60;;;18.60;75.30;;;;;;5119597;28;20107;-82
2022/08/09 00:11:49;;;;;;;2.08;1.52;;;18.50;75.30;;;;;;5115835;28;20080;-82
2022/08/09 00:14:15;;;;;;;4.28;1.70;;;18.50;75.80;;;;;;5114568;28;20027;-82
2022/08/09 00:16:41;;;;;;;3.10;1.85;;;18.40;76.10;;;;;;5114236;27;20030;-82
2022/08/09 00:19:08;;;;;;;3.40;1.70;;;18.40;76.30;;;;;;5113243;28;20027;-81
2022/08/09 00:21:34;;;;;;;3.83;1.60;;;18.40;76.60;;;;;;5114585;28;20080;-81
2022/08/09 00:23:59;;;;;;;2.78;1.83;;;18.30;76.80;;;;;;5114984;28;20114;-81
2022/08/09 00:26:26;;;;;;;2.78;1.98;;;18.30;77.00;;;;;;5112306;28;20031;-81
2022/08/09 00:28:52;;;;;;;3.05;1.42;;;18.30;77.00;;;;;;5114622;28;20077;-82
2022/08/09 00:31:22;;;;;;;3.17;2.15;;;18.20;77.10;;;;;;5114017;28;20119;-81
2022/08/09 00:33:48;;;;;;;2.53;1.75;;;18.20;77.80;;;;;;5114495;28;20019;-82
2022/08/09 00:36:14;;;;;;;2.35;1.80;;;18.20;78.30;;;;;;5112208;28;20023;-82
2022/08/09 00:38:39;;;;;;;3.15;1.90;;;18.10;78.10;;;;;;5114152;28;20117;-82
2022/08/09 00:41:05;;;;;;;2.28;1.42;;;18.10;78.00;;;;;;5112531;28;20093;-82
2022/08/09 00:43:33;;;;;;;1.98;1.33;;;18.10;78.10;;;;;;5114201;28;20027;-82
2022/08/09 00:45:58;;;;;;;2.08;1.50;;;18.10;78.00;;;;;;5112508;28;20027;-82
2022/08/09 00:48:24;;;;;;;4.80;1.60;;;18.00;78.10;;;;;;5112905;28;20397;-82
2022/08/09 00:50:49;;;;;;;6.00;2.03;;;18.00;78.30;;;;;;5114190;28;20080;-82
2022/08/09 00:53:16;;;;;;;3.63;1.67;;;18.00;78.80;;;;;;5112685;28;20027;-82
2022/08/09 00:55:42;;;;;;;3.58;2.17;;;18.00;78.80;;;;;;5112383;28;20105;-82
2022/08/09 00:58:07;;;;;;;2.67;1.70;;;18.00;78.90;;;;;;5112568;28;20481;-82
2022/08/09 01:00:36;;;;;;;7.38;1.73;;;17.90;78.90;;;;;;5111281;28;20059;-81
2022/08/09 01:03:15;;;;;;;3.00;1.88;;;17.90;79.10;;;;;;5113562;28;20548;-82
2022/08/09 01:05:48;;;;;;;2.10;1.33;;;17.90;79.40;;;;;;5112542;28;20034;-81
2022/08/09 01:08:41;;;;;;;3.42;1.75;;;17.80;79.70;;;;;;5112744;28;20095;-82
2022/08/09 01:11:17;;;;;;;3.63;1.95;;;17.80;80.30;;;;;;5113727;28;20102;-82
2022/08/09 01:13:57;;;;;;;2.10;1.70;;;17.70;80.30;;;;;;5113888;28;20024;-82
2022/08/09 01:16:26;;;;;;;3.10;1.83;;;17.70;80.70;;;;;;5112849;28;20032;-82
2022/08/09 01:18:54;;;;;;;2.90;1.77;;;17.60;81.60;;;;;;5114077;28;20073;-81
2022/08/09 01:21:33;;;;;;;3.90;1.90;;;17.60;81.50;;;;;;5111874;28;20039;-81
2022/08/09 01:24:03;;;;;;;4.18;2.05;;;17.60;81.70;;;;;;5114806;28;20073;-81
2022/08/09 01:26:47;;;;;;;3.17;1.98;;;17.50;81.80;;;;;;5115911;28;20023;-81
2022/08/09 01:29:14;;;;;;;3.30;1.98;;;17.50;82.70;;;;;;5116902;28;20059;-81
2022/08/09 01:31:43;;;;;;;6.25;1.80;;;17.50;82.70;;;;;;5112797;28;20109;-82
2022/08/09 01:34:13;;;;;;;3.25;1.95;;;17.50;83.70;;;;;;5113017;28;20024;-81
2022/08/09 01:36:40;;;;;;;3.00;1.90;;;17.40;83.40;;;;;;5113839;28;20034;-82
2022/08/09 01:39:06;;;;;;;5.15;1.95;;;17.40;84.00;;;;;;5114014;28;20036;-82
2022/08/09 01:41:35;;;;;;;2.47;1.58;;;17.40;83.60;;;;;;5112918;27;20031;-82
2022/08/09 01:44:03;;;;;;;4.03;2.13;;;17.40;84.30;;;;;;5113448;28;20036;-82
2022/08/09 01:46:33;;;;;;;3.85;2.20;;;17.30;84.00;;;;;;5111071;28;20027;-81
2022/08/09 01:49:04;;;;;;;2.53;1.60;;;17.30;84.80;;;;;;5113121;28;20485;-82
2022/08/09 01:51:30;;;;;;;3.25;2.40;;;17.30;85.00;;;;;;5112669;28;20023;-83
2022/08/09 01:53:58;;;;;;;2.75;1.73;;;17.30;85.10;;;;;;5113157;28;20034;-80
2022/08/09 01:56:26;;;;;;;2.72;1.88;;;17.20;85.60;;;;;;5112389;28;20019;-81
2022/08/09 01:58:52;;;;;;;3.75;1.92;;;17.20;85.70;;;;;;5112370;28;20019;-82
2022/08/09 02:01:19;;;;;;;7.60;2.00;;;17.10;86.10;;;;;;5113115;28;20026;-80
2022/08/09 02:03:47;;;;;;;5.10;2.25;;;17.10;86.70;;;;;;5117203;28;20473;-80
2022/08/09 02:06:13;;;;;;;5.45;2.88;;;17.10;87.30;;;;;;5117403;28;20489;-82
2022/08/09 02:08:42;;;;;;;3.22;1.92;;;17.10;87.30;;;;;;5112940;28;20020;-80
2022/08/09 02:11:10;;;;;;;3.65;2.20;;;17.00;87.20;;;;;;5111459;28;20043;-81
2022/08/09 02:13:36;;;;;;;3.40;2.00;;;17.00;87.90;;;;;;5112429;28;20035;-80
2022/08/09 02:16:03;;;;;;;3.15;2.03;;;17.00;88.20;;;;;;5111791;28;20255;-81
2022/08/09 02:18:32;;;;;;;4.28;2.53;;;16.90;88.30;;;;;;5112052;28;20031;-81
2022/08/09 02:21:11;;;;;;;4.15;1.92;;;16.90;88.70;;;;;;5112001;28;20044;-81
2022/08/09 02:23:43;;;;;;;4.10;2.05;;;16.90;89.10;;;;;;5112373;28;20116;-83
2022/08/09 02:26:13;;;;;;;2.58;1.95;;;16.90;89.90;;;;;;5111512;28;20031;-81
2022/08/09 02:28:42;;;;;;;2.63;2.05;;;16.80;90.10;;;;;;5112296;28;20390;-81
2022/08/09 02:31:17;;;;;;;3.38;2.13;;;16.80;90.30;;;;;;5111669;28;20111;-82
2022/08/09 02:33:45;;;;;;;4.40;2.00;;;16.80;90.30;;;;;;5112170;28;20035;-82
2022/08/09 02:36:17;;;;;;;4.70;2.13;;;16.70;90.20;;;;;;5111161;28;20196;-82
2022/08/09 02:38:54;;;;;;;2.80;2.10;;;16.70;90.60;;;;;;5111945;28;20030;-81
2022/08/09 02:41:29;;;;;;;3.85;2.50;;;16.70;90.60;;;;;;5111339;27;20453;-82
2022/08/09 02:44:01;;;;;;;3.30;1.95;;;16.70;90.80;;;;;;5110652;28;20474;-81
2022/08/09 02:46:28;;;;;;;5.75;2.30;;;16.70;90.70;;;;;;5109517;28;20444;-82
2022/08/09 02:48:57;;;;;;;2.55;2.20;;;16.70;90.80;;;;;;5111971;28;20040;-81
2022/08/09 02:51:25;;;;;;;4.55;2.25;;;16.60;90.70;;;;;;5109980;28;20031;-83
2022/08/09 02:53:57;;;;;;;2.03;1.85;;;16.60;90.70;;;;;;5111733;28;20036;-82
2022/08/09 02:56:24;;;;;;;5.38;2.75;;;16.60;90.80;;;;;;5110964;28;20490;-83
2022/08/09 02:58:51;;;;;;;2.72;2.10;;;16.60;90.90;;;;;;5111679;28;20028;-82
2022/08/09 03:01:18;;;;;;;3.58;2.20;;;16.50;90.90;;;;;;5109705;28;20180;-82
2022/08/09 03:03:44;;;;;;;3.47;2.17;;;16.50;91.00;;;;;;5110018;28;20024;-83
2022/08/09 03:06:13;;;;;;;3.03;2.20;;;16.50;91.30;;;;;;5109300;28;20034;-82
2022/08/09 03:08:45;;;;;;;2.63;1.92;;;16.50;91.30;;;;;;5111271;28;20023;-82
2022/08/09 03:11:14;;;;;;;4.95;2.42;;;16.50;91.40;;;;;;5111042;28;20031;-82
2022/08/09 03:13:41;;;;;;;4.03;2.13;;;16.40;91.40;;;;;;5110162;28;20381;-82
2022/08/09 03:16:07;;;;;;;2.75;2.20;;;16.40;91.50;;;;;;5110572;28;20050;-83
2022/08/09 03:18:34;;;;;;;3.25;2.40;;;16.40;91.60;;;;;;5111566;28;20038;-82
2022/08/09 03:21:01;;;;;;;6.55;3.03;;;16.40;91.70;;;;;;5111051;28;20089;-82
2022/08/09 03:23:28;;;;;;;4.47;2.20;;;16.30;91.70;;;;;;5110297;28;20049;-81
2022/08/09 03:25:56;;;;;;;4.22;2.60;;;16.30;92.00;;;;;;5110657;28;20059;-81
2022/08/09 03:28:23;;;;;;;3.40;2.22;;;16.30;92.10;;;;;;5110878;28;20062;-81
2022/08/09 03:30:49;;;;;;;4.18;2.60;;;16.20;92.10;;;;;;5110676;28;20054;-82
2022/08/09 03:33:16;;;;;;;4.55;2.58;;;16.20;92.20;;;;;;5110887;28;20028;-83
2022/08/09 03:35:41;;;;;;;3.08;2.78;;;16.20;92.20;;;;;;5110494;28;20031;-81
2022/08/09 03:38:07;;;;;;;4.15;2.45;;;16.20;92.30;;;;;;5110699;28;20107;-81
2022/08/09 03:40:33;;;;;;;2.38;2.17;;;16.20;92.30;;;;;;5110633;28;20451;-81
2022/08/09 03:42:58;;;;;;;5.22;2.65;;;16.10;92.40;;;;;;5110960;28;20539;-82
2022/08/09 03:45:23;;;;;;;3.45;2.40;;;16.10;92.60;;;;;;5110600;28;20032;-80
2022/08/09 03:47:49;;;;;;;3.33;2.75;;;16.10;92.60;;;;;;5110815;28;20023;-80
2022/08/09 03:50:15;;;;;;;3.67;2.30;;;16.10;92.60;;;;;;5110635;28;20047;-81
2022/08/09 03:52:42;;;;;;;3.72;2.90;;;16.10;92.70;;;;;;5110703;28;20058;-81
2022/08/09 03:55:10;;;;;;;5.43;2.97;;;16.00;92.90;;;;;;5110784;28;20023;-80
2022/08/09 03:57:36;;;;;;;3.80;2.40;;;16.00;92.90;;;;;;5108704;28;20023;-81
2022/08/09 04:00:03;;;;;;;3.08;2.55;;;16.00;92.80;;;;;;5108899;28;20038;-81
2022/08/09 04:02:30;;;;;;;5.28;2.50;;;16.00;92.60;;;;;;5110198;28;20031;-80
2022/08/09 04:04:58;;;;;;;4.13;2.28;;;16.00;92.50;;;;;;5109371;28;20028;-80
2022/08/09 04:07:24;;;;;;;3.78;2.50;;;16.00;92.60;;;;;;5108412;28;20023;-81
2022/08/09 04:09:49;;;;;;;6.50;2.65;;;16.00;92.60;;;;;;5110797;28;20034;-80
2022/08/09 04:12:15;;;;;;;3.80;2.72;;;16.00;92.80;;;;;;5108680;28;20488;-80
2022/08/09 04:14:41;;;;;;;3.00;2.53;;;15.90;93.10;;;;;;5110527;28;20393;-81
2022/08/09 04:17:07;;;;;;;4.47;2.47;;;16.00;93.10;;;;;;5110169;28;20462;-80
2022/08/09 04:19:33;;;;;;;3.25;2.30;;;16.00;93.10;;;;;;5110603;28;20105;-80
2022/08/09 04:21:59;;;;;;;3.45;2.40;;;16.00;93.10;;;;;;5110320;28;20047;-80
2022/08/09 04:24:24;;;;;;;5.03;2.50;;;16.00;93.20;;;;;;5110562;28;20090;-80
2022/08/09 04:26:51;;;;;;;4.28;2.42;;;16.00;93.20;;;;;;5110187;28;20108;-79
2022/08/09 04:29:17;;;;;;;3.72;2.20;;;16.00;93.30;;;;;;5110436;28;20069;-80
2022/08/09 04:31:42;;;;;;;3.78;2.22;;;16.00;93.30;;;;;;5110315;28;20031;-81
2022/08/09 04:34:08;;;;;;;5.80;2.92;;;16.10;93.20;;;;;;5110598;28;20392;-81
2022/08/09 04:36:33;;;;;;;4.38;2.25;;;16.10;93.00;;;;;;5112577;28;20477;-82
2022/08/09 04:39:01;;;;;;;3.40;2.08;;;16.10;92.90;;;;;;5114040;28;20035;-81
2022/08/09 04:41:28;;;;;;;4.82;2.38;;;16.20;92.90;;;;;;5113973;28;20485;-80
2022/08/09 04:43:54;;;;;;;4.47;2.58;;;16.20;93.20;;;;;;5114128;28;20028;-80
2022/08/09 04:46:20;;;;;;;3.00;2.47;;;16.20;93.30;;;;;;5113566;28;20036;-80
2022/08/09 04:48:46;;;;;;;3.28;2.53;;;16.10;93.10;;;;;;5114437;28;20092;-81
2022/08/09 04:51:12;;;;;;;6.45;2.42;;;16.10;93.10;;;;;;5112454;28;20041;-81
2022/08/09 04:53:38;;;;;;;3.60;2.58;;;16.10;93.20;;;;;;5113030;28;20020;-81
2022/08/09 04:56:03;;;;;;;4.38;2.70;;;16.10;93.10;;;;;;5113996;28;20440;-81
2022/08/09 04:58:29;;;;;;;7.15;2.90;;;16.20;93.00;;;;;;5114083;28;20139;-82
2022/08/09 05:00:54;;;;;;;6.32;3.08;;;16.20;93.00;;;;;;5115013;28;20685;-81
2022/08/09 05:03:21;;;;;;;3.40;2.20;;;16.20;93.00;;;;;;5112763;28;20042;-81
2022/08/09 05:05:47;;;;;;;7.75;2.55;;;16.30;92.90;;;;;;5113082;28;20050;-80
2022/08/09 05:08:13;;;;;;;5.45;2.95;;;16.30;92.80;;;;;;5113909;28;20040;-79
2022/08/09 05:10:38;;;;;;;4.90;2.45;;;16.40;92.70;;;;;;5113589;28;20420;-80
2022/08/09 05:13:04;;;;;;;4.50;2.83;;;16.40;92.60;;;;;;5112623;28;20396;-80
2022/08/09 05:15:30;;;;;;;6.35;2.50;;;16.40;92.50;;;;;;5111648;28;20020;-80
2022/08/09 05:17:55;;;;;;;3.05;2.50;;;16.50;92.40;;;;;;5114726;28;20081;-80
2022/08/09 05:20:21;;;;;;;5.97;2.67;;;16.60;92.50;;;;;;5111297;28;20040;-80
2022/08/09 05:22:49;;;;;;;4.90;3.25;;;16.60;92.30;;;;;;5107526;28;20051;-80
2022/08/09 05:25:15;;;;;;;5.22;2.75;;;16.70;92.20;;;;;;5111811;28;20024;-80
2022/08/09 05:27:40;;;;;;;4.78;2.67;;;16.70;92.30;;;;;;5113850;28;20028;-81
2022/08/09 05:30:06;;;;;;;3.65;2.55;;;16.80;92.10;;;;;;5111923;28;20381;-81
2022/08/09 05:32:32;;;;;;;2.58;2.35;;;16.80;92.00;;;;;;5112698;28;20026;-81
2022/08/09 05:34:57;;;;;;;4.15;2.75;;;16.90;91.90;;;;;;5112002;28;20047;-81
2022/08/09 05:37:24;;;;;;;4.65;2.50;;;16.90;91.90;;;;;;5111946;28;20069;-81
2022/08/09 05:39:49;;;;;;;4.88;2.30;;;17.00;91.80;;;;;;5113131;28;20465;-82
2022/08/09 05:42:15;;;;;;;6.45;3.72;;;17.10;91.80;;;;;;5112153;28;20047;-82
2022/08/09 05:44:40;;;;;;;8.98;2.80;;;17.20;91.70;;;;;;5111829;28;20131;-82
2022/08/09 05:47:06;;;;;;;3.03;2.50;;;17.20;91.50;;;;;;5110129;28;20051;-80
2022/08/09 05:49:32;;;;;;;9.45;3.22;;;17.30;91.20;;;;;;5112860;28;20040;-81
2022/08/09 05:51:57;;;;;;;5.40;3.05;;;17.40;90.90;;;;;;5111358;28;20028;-81
2022/08/09 05:54:23;;;;;;;3.15;2.20;;;17.50;90.70;;;;;;5111284;28;20394;-81
2022/08/09 05:56:48;;;;;;;6.15;2.55;;;17.70;90.60;;;;;;5111320;28;20068;-82
2022/08/09 05:59:14;;;;;;;4.53;3.13;;;17.80;90.40;;;;;;5113163;28;20028;-81
2022/08/09 06:01:41;;;;;;;3.90;2.83;;;18.00;90.60;;;;;;5112768;28;20050;-81
2022/08/09 06:04:07;;;;;;;3.90;2.67;;;18.20;90.20;;;;;;5112870;28;20020;-82
2022/08/09 06:06:32;;;;;;;3.50;2.92;;;18.30;89.50;;;;;;5112298;28;20043;-82
2022/08/09 06:08:58;;;;;;;5.20;3.00;;;18.50;89.10;;;;;;5112557;28;20063;-82
2022/08/09 06:11:23;;;;;;;12.00;2.75;;;18.60;88.20;;;;;;5111944;28;20032;-82
2022/08/09 06:13:49;;;;;;;4.47;2.47;;;18.70;87.80;;;;;;5111138;28;20044;-82
2022/08/09 06:16:14;;;;;;;3.72;2.40;;;18.80;87.20;;;;;;5112044;28;20038;-82
2022/08/09 06:18:40;;;;;;;7.05;2.30;;;18.90;87.30;;;;;;5111044;28;20081;-82
2022/08/09 06:21:06;;;;;;;7.43;2.83;;;19.00;86.80;;;;;;5112526;28;20141;-82
2022/08/09 06:23:32;;;;;;;5.88;2.72;;;19.10;86.40;;;;;;5112770;28;20474;-82
2022/08/09 06:25:58;;;;;;;12.55;2.65;;;19.20;86.20;;;;;;5110585;28;20041;-82
2022/08/09 06:28:23;;;;;;;5.55;2.55;;;19.30;86.20;;;;;;5112463;28;20035;-82
2022/08/09 06:30:49;;;;;;;4.07;2.97;;;19.30;85.20;;;;;;5112356;27;20024;-82
2022/08/09 06:33:15;;;;;;;5.60;2.92;;;19.40;86.10;;;;;;5112297;28;20023;-82
2022/08/09 06:35:40;;;;;;;3.83;2.67;;;19.40;85.50;;;;;;5111928;28;20110;-82
2022/08/09 06:38:06;;;;;;;8.82;2.72;;;19.50;84.90;;;;;;5112377;28;20461;-81
2022/08/09 06:40:31;;;;;;;3.47;2.50;;;19.50;84.00;;;;;;5110348;28;20073;-81
2022/08/09 06:42:57;;;;;;;3.90;2.88;;;19.50;84.10;;;;;;5112032;28;20032;-82
2022/08/09 06:45:23;;;;;;;5.07;2.97;;;19.60;84.30;;;;;;5110267;28;20030;-82
2022/08/09 06:47:49;;;;;;;4.18;2.17;;;19.50;84.00;;;;;;5111473;28;20039;-82
2022/08/09 06:50:14;;;;;;;6.07;2.15;;;19.60;84.10;;;;;;5111409;28;20062;-82
2022/08/09 06:52:47;;;;;;;8.68;2.78;;;19.70;84.40;;;;;;5111835;28;20035;-82
2022/08/09 06:55:18;;;;;;;4.13;2.33;;;19.70;84.90;;;;;;5111423;28;20055;-82
2022/08/09 06:57:43;;;;;;;3.60;2.30;;;19.80;85.00;;;;;;5111498;28;20024;-82
2022/08/09 07:00:10;;;;;;;4.03;2.53;;;19.90;84.70;;;;;;5110323;28;20072;-82
2022/08/09 07:02:36;;;;;;;6.05;2.65;;;19.80;84.20;;;;;;5111414;28;20038;-82
2022/08/09 07:05:03;;;;;;;4.70;2.55;;;19.90;84.00;;;;;;5112036;28;20028;-82
2022/08/09 07:07:29;;;;;;;3.80;2.60;;;20.00;83.80;;;;;;5111399;28;20026;-83
2022/08/09 07:09:54;;;;;;;4.38;2.40;;;20.10;83.40;;;;;;5111866;28;20032;-82
2022/08/09 07:12:20;;;;;;;4.57;2.38;;;20.20;83.50;;;;;;5111124;28;20107;-82
2022/08/09 07:14:46;;;;;;;8.20;3.35;;;20.30;82.60;;;;;;5111959;28;20047;-82
2022/08/09 07:17:13;;;;;;;5.00;2.78;;;20.40;81.70;;;;;;5109617;28;20051;-82
2022/08/09 07:19:38;;;;;;;3.13;2.60;;;20.40;82.60;;;;;;5110100;28;20100;-82
2022/08/09 07:22:04;;;;;;;4.95;2.80;;;20.50;82.10;;;;;;5111069;28;20081;-82
2022/08/09 07:24:30;;;;;;;6.85;2.25;;;20.70;81.60;;;;;;5111134;27;20445;-82
2022/08/09 07:26:56;;;;;;;4.18;2.47;;;20.80;80.10;;;;;;5111582;28;20035;-82
2022/08/09 07:29:22;;;;;;;6.55;3.05;;;21.00;80.00;;;;;;5111388;28;20049;-82
2022/08/09 07:31:47;;;;;;;7.45;2.05;;;21.00;80.50;;;;;;5111241;28;20481;-83
2022/08/09 07:34:13;;;;;;;7.50;3.40;;;21.00;80.50;;;;;;5111355;28;20031;-83
2022/08/09 07:36:39;;;;;;;6.47;2.10;;;21.10;81.00;;;;;;5109808;28;20031;-83
2022/08/09 07:39:05;;;;;;;5.15;2.33;;;21.30;80.90;;;;;;5109819;28;20066;-83
2022/08/09 07:41:30;;;;;;;9.38;2.67;;;21.40;80.80;;;;;;5110825;28;20067;-83
2022/08/09 07:43:56;;;;;;;4.72;2.15;;;21.60;83.20;;;;;;5109848;28;20035;-83
2022/08/09 07:46:21;;;;;;;7.38;1.90;;;21.80;82.20;;;;;;5110796;28;20028;-84
2022/08/09 07:48:47;;;;;;;6.88;2.65;;;22.00;79.60;;;;;;5111487;28;20077;-84
2022/08/09 07:51:13;;;;;;;2.70;2.00;;;22.20;79.40;;;;;;5109699;28;20031;-84
2022/08/09 07:53:38;;;;;;;7.60;2.90;;;22.30;78.00;;;;;;5111516;28;20027;-84
2022/08/09 07:56:04;;;;;;;4.15;1.95;;;22.40;78.30;;;;;;5111219;28;20424;-82
2022/08/09 07:58:30;;;;;;;6.00;2.20;;;22.50;78.70;;;;;;5109647;28;20054;-82
2022/08/09 08:00:55;;;;;;;7.53;2.50;;;22.70;79.60;;;;;;5111415;28;20044;-82
2022/08/09 08:03:21;;;;;;;5.15;2.30;;;22.80;77.50;;;;;;5111116;28;20012;-82
2022/08/09 08:05:47;;;;;;;3.58;2.15;;;22.70;78.00;;;;;;5110658;28;20063;-84
2022/08/09 08:08:12;;;;;;;7.13;2.47;;;22.80;77.70;;;;;;5111163;28;20184;-83
2022/08/09 08:10:38;;;;;;;3.97;1.75;;;22.90;76.80;;;;;;5114245;28;20035;-83
2022/08/09 08:13:03;;;;;;;3.67;2.20;;;23.10;79.80;;;;;;5113917;28;20031;-83
2022/08/09 08:15:29;;;;;;;4.50;2.03;;;23.30;79.80;;;;;;5114582;28;20048;-83
2022/08/09 08:17:55;;;;;;;5.15;2.50;;;23.50;75.80;;;;;;5115165;28;20028;-84
2022/08/09 08:20:22;;;;;;;3.65;1.88;;;23.80;76.30;;;;;;5114879;28;20084;-84
2022/08/09 08:22:48;;;;;;;4.47;2.20;;;23.90;76.70;;;;;;5114841;28;20377;-84
2022/08/09 08:25:13;;;;;;;6.05;1.83;;;24.00;72.30;;;;;;5114577;28;20111;-84
2022/08/09 08:27:40;;;;;;;2.53;1.90;;;24.10;71.70;;;;;;5114467;28;20469;-85
2022/08/09 08:30:06;;;;;;;2.50;1.95;;;24.30;71.70;;;;;;5114888;28;20036;-84
2022/08/09 08:32:31;;;;;;;7.78;2.28;;;24.30;71.00;;;;;;5112898;28;20034;-84
2022/08/09 08:34:58;;;;;;;4.25;1.95;;;24.30;72.80;;;;;;5114973;28;20046;-85
2022/08/09 08:37:23;;;;;;;3.10;1.77;;;24.50;72.10;;;;;;5114612;28;20047;-84
2022/08/09 08:39:49;;;;;;;8.38;2.10;;;24.60;71.50;;;;;;5115807;28;20050;-85
2022/08/09 08:42:14;;;;;;;3.15;1.80;;;24.80;71.80;;;;;;5115730;28;20054;-84
2022/08/09 08:44:41;;;;;;;2.95;2.17;;;24.90;71.30;;;;;;5122649;28;20019;-84
2022/08/09 08:47:07;;;;;;;3.58;2.08;;;25.10;70.50;;;;;;5119401;28;20024;-85
2022/08/09 08:49:37;;;;;;;6.65;2.25;;;25.20;71.50;;;;;;5115224;28;20023;-85
2022/08/09 08:52:03;;;;;;;4.05;1.80;;;25.20;68.40;;;;;;5113006;28;20057;-84
2022/08/09 08:54:29;;;;;;;3.05;2.25;;;25.40;69.90;;;;;;5113005;28;20070;-85
2022/08/09 08:56:55;;;;;;;3.17;2.17;;;25.50;68.80;;;;;;5113720;28;20035;-85
2022/08/09 08:59:21;;;;;;;3.70;1.98;;;25.60;69.70;;;;;;5113921;27;20042;-84
2022/08/09 09:01:48;;;;;;;2.63;1.80;;;25.80;71.40;;;;;;5113573;28;20034;-86
2022/08/09 09:04:17;;;;;;;2.92;2.15;;;26.00;67.50;;;;;;5114779;28;20028;-85
2022/08/09 09:06:45;;;;;;;6.05;2.10;;;26.10;66.70;;;;;;5112412;28;20111;-86
2022/08/09 09:09:14;;;;;;;3.17;1.50;;;26.20;66.30;;;;;;5114104;28;20031;-85
2022/08/09 09:11:41;;;;;;;5.78;1.67;;;26.30;66.30;;;;;;5114061;28;20023;-86
2022/08/09 09:14:16;;;;;;;3.80;1.52;;;26.40;64.90;;;;;;5112694;28;20028;-85
2022/08/09 09:16:42;;;;;;;4.03;1.80;;;26.50;65.10;;;;;;5113691;28;20037;-87
2022/08/09 09:19:09;;;;;;;3.60;1.80;;;26.50;65.50;;;;;;5112623;28;20031;-85
2022/08/09 09:21:35;;;;;;;4.93;1.77;;;26.50;64.50;;;;;;5112336;28;20065;-84
2022/08/09 09:24:06;;;;;;;5.85;1.70;;;26.60;65.20;;;;;;5113889;28;20027;-85
2022/08/09 09:26:35;;;;;;;3.03;1.17;;;26.70;65.10;;;;;;5111870;28;20103;-85
2022/08/09 09:29:01;;;;;;;4.43;1.98;;;26.90;65.20;;;;;;5112108;28;20028;-85
2022/08/09 09:31:27;;;;;;;5.50;1.83;;;27.00;65.80;;;;;;5112917;28;20094;-85
2022/08/09 09:34:12;;;;;;;5.57;1.55;;;27.10;64.10;;;;;;5113532;28;20023;-85
2022/08/09 09:36:40;;;;;;;2.70;1.70;;;27.30;65.40;;;;;;5112752;28;20019;-85
2022/08/09 09:39:08;;;;;;;4.13;1.75;;;27.40;62.40;;;;;;5111850;28;20035;-85
2022/08/09 09:41:34;;;;;;;3.47;1.42;;;27.50;62.80;;;;;;5113008;28;20046;-85
2022/08/09 09:44:03;;;;;;;2.50;1.38;;;27.30;62.30;;;;;;5113229;28;20020;-85
2022/08/09 09:46:34;;;;;;;3.35;1.60;;;27.40;64.60;;;;;;5112431;28;20030;-85
2022/08/09 09:49:03;;;;;;;8.35;2.08;;;27.50;63.10;;;;;;5112165;28;20028;-86
2022/08/09 09:51:30;;;;;;;5.00;2.00;;;27.50;62.10;;;;;;5112757;28;20027;-86
2022/08/09 09:54:22;;;;;;;7.57;2.03;;;27.60;61.50;;;;;;5113017;27;20659;-85
2022/08/09 09:56:49;;;;;;;2.05;1.20;;;27.60;62.40;;;;;;5108612;28;20036;-87
2022/08/09 09:59:32;;;;;;;4.93;1.67;;;27.70;61.10;;;;;;5111855;28;20035;-85
2022/08/09 10:02:01;;;;;;;2.70;1.60;;;27.90;63.10;;;;;;5113626;28;20035;-86
2022/08/09 10:04:26;;;;;;;3.80;1.75;;;27.80;60.60;;;;;;5113116;28;20072;-85
2022/08/09 10:06:52;;;;;;;2.22;1.02;;;27.80;62.50;;;;;;5112540;28;20035;-85
2022/08/09 10:09:18;;;;;;;5.43;1.67;;;28.00;59.90;;;;;;5111761;28;20314;-87
2022/08/09 10:11:43;;;;;;;4.72;1.52;;;28.00;58.90;;;;;;5111064;28;20043;-84
2022/08/09 10:14:26;;;;;;;2.47;1.60;;;28.20;61.50;;;;;;5113110;28;20023;-85
2022/08/09 10:16:52;;;;;;;2.35;1.58;;;28.30;58.70;;;;;;5113236;28;20038;-86
2022/08/09 10:19:17;;;;;;;5.90;1.65;;;28.40;58.70;;;;;;5112789;28;20028;-86
2022/08/09 10:21:49;;;;;;;3.90;1.33;;;28.30;59.00;;;;;;5111226;28;20157;-87
2022/08/09 10:24:18;;;;;;;8.43;1.60;;;28.40;58.80;;;;;;5112762;28;20024;-86
2022/08/09 10:26:45;;;;;;;1.63;1.30;;;28.20;56.90;;;;;;5110965;28;20027;-85
2022/08/09 10:29:14;;;;;;;4.88;1.55;;;28.30;57.80;;;;;;5112599;28;20035;-85
2022/08/09 10:31:40;;;;;;;6.35;1.40;;;28.40;56.60;;;;;;5112394;28;20550;-86
2022/08/09 10:34:10;;;;;;;3.35;1.60;;;28.60;57.30;;;;;;5112163;28;20042;-85
2022/08/09 10:36:36;;;;;;;5.65;1.52;;;28.60;55.40;;;;;;5110481;28;20173;-85
2022/08/09 10:39:02;;;;;;;2.33;1.23;;;28.60;56.20;;;;;;5112138;27;20107;-87
2022/08/09 10:41:28;;;;;;;3.10;1.23;;;28.70;56.20;;;;;;5110259;28;20123;-85
2022/08/09 10:43:54;;;;;;;5.72;1.30;;;28.70;56.10;;;;;;5112503;28;20055;-85
2022/08/09 10:46:25;;;;;;;3.10;1.10;;;28.90;56.00;;;;;;5110631;28;20020;-86
2022/08/09 10:48:57;;;;;;;6.03;1.17;;;28.90;56.50;;;;;;5112553;28;20560;-85
2022/08/09 10:51:48;;;;;;;1.60;1.02;;;29.00;54.10;;;;;;5112420;28;20040;-84
2022/08/09 10:54:14;;;;;;;3.67;1.65;;;29.10;54.20;;;;;;5111029;28;20453;-85
2022/08/09 10:56:41;;;;;;;3.05;1.27;;;29.30;53.00;;;;;;5112004;28;20027;-85
2022/08/09 10:59:21;;;;;;;4.50;2.38;;;29.40;52.20;;;;;;5112024;28;20032;-86
2022/08/09 11:01:51;;;;;;;3.17;1.30;;;29.70;55.90;;;;;;5111924;28;20023;-84
2022/08/09 11:04:29;;;;;;;1.40;0.90;;;29.80;53.00;;;;;;5112176;28;20028;-85
2022/08/09 11:06:58;;;;;;;4.18;1.17;;;29.60;51.30;;;;;;5111414;28;20054;-84
2022/08/09 11:09:42;;;;;;;1.75;1.05;;;29.60;54.60;;;;;;5110709;28;20478;-85
2022/08/09 11:12:14;;;;;;;1.58;1.00;;;29.80;53.40;;;;;;5110393;28;20023;-84
2022/08/09 11:14:43;;;;;;;2.40;1.05;;;29.90;53.00;;;;;;5111923;28;20484;-84
2022/08/09 11:17:15;;;;;;;7.97;1.23;;;30.00;55.00;;;;;;5111846;28;20032;-84
2022/08/09 11:20:00;;;;;;;4.22;1.15;;;30.20;52.10;;;;;;5112260;28;20027;-85
2022/08/09 11:22:43;;;;;;;1.92;1.05;;;30.20;51.00;;;;;;5110329;28;20036;-85
2022/08/09 11:25:14;;;;;;;2.53;0.95;;;30.30;51.50;;;;;;5111693;28;20023;-85
2022/08/09 11:27:45;;;;;;;6.85;1.10;;;30.50;50.60;;;;;;5109938;28;20377;-86
2022/08/09 11:30:13;;;;;;;2.65;1.05;;;30.60;51.20;;;;;;5113000;28;20081;-84
2022/08/09 11:32:39;;;;;;;2.05;1.10;;;30.70;49.60;;;;;;5110405;28;20078;-84
2022/08/09 11:35:27;;;;;;;2.88;1.35;;;30.60;48.40;;;;;;5112921;28;20023;-85
2022/08/09 11:37:55;;;;;;;4.28;1.17;;;30.80;50.70;;;;;;5112976;28;20026;-85
2022/08/09 11:40:30;;;;;;;2.75;0.90;;;30.90;49.60;;;;;;5112206;28;20451;-86
2022/08/09 11:43:00;;;;;;;2.20;1.13;;;30.80;50.20;;;;;;5111942;28;20024;-84
2022/08/09 11:45:42;;;;;;;5.05;1.08;;;30.50;49.40;;;;;;5110491;28;20036;-86
2022/08/09 11:48:10;;;;;;;5.07;1.02;;;30.20;48.30;;;;;;5111579;28;20019;-84
2022/08/09 11:50:55;;;;;;;1.23;0.73;;;30.10;48.90;;;;;;5111693;28;20032;-84
2022/08/09 11:53:25;;;;;;;6.03;1.05;;;30.20;50.00;;;;;;5111613;28;20105;-85
2022/08/09 11:55:52;;;;;;;3.65;1.05;;;30.20;49.10;;;;;;5111662;28;20031;-85
2022/08/09 11:58:18;;;;;;;1.25;0.75;;;30.40;49.30;;;;;;5111899;28;20034;-83
2022/08/09 12:01:02;;;;;;;1.90;1.02;;;30.60;48.20;;;;;;5113042;28;20029;-84
2022/08/09 12:03:28;;;;;;;1.00;0.60;;;30.50;47.50;;;;;;5116034;28;20041;-84
2022/08/09 12:05:58;;;;;;;2.13;1.05;;;30.20;48.60;;;;;;5120681;28;20039;-84
2022/08/09 12:08:25;;;;;;;1.98;1.05;;;30.20;46.70;;;;;;5116831;28;20034;-84
2022/08/09 12:10:54;;;;;;;2.55;1.02;;;30.30;48.00;;;;;;5111164;28;20023;-86
2022/08/09 12:13:41;;;;;;;2.33;0.80;;;30.70;48.80;;;;;;5111635;28;20024;-85
2022/08/09 12:16:09;;;;;;;3.08;1.00;;;30.90;47.10;;;;;;5109866;28;20028;-86
2022/08/09 12:18:37;;;;;;;3.95;0.70;;;30.90;47.00;;;;;;5111497;28;20035;-88
2022/08/09 12:21:05;;;;;;;1.35;0.88;;;31.00;46.10;;;;;;5110564;28;20110;-85
2022/08/09 12:23:32;;;;;;;3.85;0.90;;;31.10;47.50;;;;;;5109652;28;20047;-85
2022/08/09 12:25:58;;;;;;;2.92;0.90;;;31.40;47.60;;;;;;5110644;28;20024;-85
2022/08/09 12:28:26;;;;;;;1.58;1.20;;;31.60;46.10;;;;;;5111026;28;20118;-85
2022/08/09 12:30:52;;;;;;;1.73;0.70;;;31.80;46.00;;;;;;5111057;28;20103;-85
2022/08/09 12:33:19;;;;;;;3.10;1.27;;;31.90;46.20;;;;;;5111540;28;20122;-85
2022/08/09 12:35:45;;;;;;;1.25;0.70;;;31.70;46.30;;;;;;5111225;28;20098;-86
2022/08/09 12:38:24;;;;;;;3.70;0.80;;;31.80;46.80;;;;;;5112702;28;20456;-86
2022/08/09 12:40:50;;;;;;;2.53;0.80;;;32.00;46.00;;;;;;5113902;28;20034;-86
2022/08/09 12:43:19;;;;;;;2.17;1.10;;;32.10;45.50;;;;;;5115784;28;20019;-85
2022/08/09 12:45:46;;;;;;;4.45;1.08;;;32.20;45.70;;;;;;5117944;28;20020;-84
2022/08/09 12:48:12;;;;;;;1.50;0.80;;;32.00;44.80;;;;;;5117025;28;20035;-83
2022/08/09 12:50:39;;;;;;;5.38;0.90;;;31.90;45.00;;;;;;5117192;28;20059;-84
2022/08/09 12:53:17;;;;;;;1.27;0.73;;;31.90;45.90;;;;;;5116664;28;20031;-84